sensor_id;sensor_type;location;lat;lon;timestamp;temperature;humidity
15394;DHT22;7795;47.986;11.868;2022-09-13T00:02:16;14.40;74.00
15394;DHT22;7795;47.986;11.868;2022-09-13T00:04:42;14.40;74.10
15394;DHT22;7795;47.986;11.868;2022-09-13T00:07:09;14.30;74.10
15394;DHT22;7795;47.986;11.868;2022-09-13T00:09:35;14.30;74.20
15394;DHT22;7795;47.986;11.868;2022-09-13T00:12:02;14.30;74.10
15394;DHT22;7795;47.986;11.868;2022-09-13T00:14:27;14.30;74.10
15394;DHT22;7795;47.986;11.868;2022-09-13T00:16:54;14.20;74.10
15394;DHT22;7795;47.986;11.868;2022-09-13T00:19:19;14.20;74.10
15394;DHT22;7795;47.986;11.868;2022-09-13T00:21:45;14.20;74.30
15394;DHT22;7795;47.986;11.868;2022-09-13T00:24:12;14.20;74.40
15394;DHT22;7795;47.986;11.868;2022-09-13T00:26:38;14.10;74.60
15394;DHT22;7795;47.986;11.868;2022-09-13T00:29:03;14.10;74.60
15394;DHT22;7795;47.986;11.868;2022-09-13T00:31:29;14.10;74.60
15394;DHT22;7795;47.986;11.868;2022-09-13T00:33:57;14.10;74.60
15394;DHT22;7795;47.986;11.868;2022-09-13T00:36:23;14.10;75.50
15394;DHT22;7795;47.986;11.868;2022-09-13T00:38:49;14.10;74.70
15394;DHT22;7795;47.986;11.868;2022-09-13T00:41:18;14.10;74.80
15394;DHT22;7795;47.986;11.868;2022-09-13T00:43:47;14.00;75.70
15394;DHT22;7795;47.986;11.868;2022-09-13T00:46:17;14.00;74.90
15394;DHT22;7795;47.986;11.868;2022-09-13T00:48:46;14.00;74.80
15394;DHT22;7795;47.986;11.868;2022-09-13T00:51:12;14.00;74.80
15394;DHT22;7795;47.986;11.868;2022-09-13T00:53:41;14.00;74.70
15394;DHT22;7795;47.986;11.868;2022-09-13T00:56:12;14.00;74.80
15394;DHT22;7795;47.986;11.868;2022-09-13T00:58:42;13.90;74.80
15394;DHT22;7795;47.986;11.868;2022-09-13T01:01:11;13.90;74.80
15394;DHT22;7795;47.986;11.868;2022-09-13T01:03:38;13.90;74.70
15394;DHT22;7795;47.986;11.868;2022-09-13T01:06:08;13.90;74.70
15394;DHT22;7795;47.986;11.868;2022-09-13T01:08:36;13.90;74.80
15394;DHT22;7795;47.986;11.868;2022-09-13T01:11:05;13.80;74.70
15394;DHT22;7795;47.986;11.868;2022-09-13T01:13:37;13.90;75.60
15394;DHT22;7795;47.986;11.868;2022-09-13T01:16:05;13.80;74.70
15394;DHT22;7795;47.986;11.868;2022-09-13T01:18:31;13.80;74.80
15394;DHT22;7795;47.986;11.868;2022-09-13T01:21:32;13.70;75.40
15394;DHT22;7795;47.986;11.868;2022-09-13T01:24:19;13.70;75.10
15394;DHT22;7795;47.986;11.868;2022-09-13T01:27:34;13.70;75.50
15394;DHT22;7795;47.986;11.868;2022-09-13T01:30:13;13.60;74.80
15394;DHT22;7795;47.986;11.868;2022-09-13T01:32:58;13.60;74.40
15394;DHT22;7795;47.986;11.868;2022-09-13T01:35:38;13.50;74.30
15394;DHT22;7795;47.986;11.868;2022-09-13T01:38:13;13.50;74.30
15394;DHT22;7795;47.986;11.868;2022-09-13T01:40:55;13.40;74.30
15394;DHT22;7795;47.986;11.868;2022-09-13T01:43:30;13.40;74.40
15394;DHT22;7795;47.986;11.868;2022-09-13T01:46:03;13.40;74.50
15394;DHT22;7795;47.986;11.868;2022-09-13T01:48:39;13.30;74.60
15394;DHT22;7795;47.986;11.868;2022-09-13T01:51:16;13.30;74.80
15394;DHT22;7795;47.986;11.868;2022-09-13T01:53:52;13.20;75.60
15394;DHT22;7795;47.986;11.868;2022-09-13T01:56:26;13.20;74.90
15394;DHT22;7795;47.986;11.868;2022-09-13T01:58:56;13.20;75.00
15394;DHT22;7795;47.986;11.868;2022-09-13T02:01:29;13.20;75.10
15394;DHT22;7795;47.986;11.868;2022-09-13T02:04:00;13.20;75.30
15394;DHT22;7795;47.986;11.868;2022-09-13T02:06:31;13.10;75.20
15394;DHT22;7795;47.986;11.868;2022-09-13T02:09:00;13.10;75.30
15394;DHT22;7795;47.986;11.868;2022-09-13T02:11:28;13.10;75.30
15394;DHT22;7795;47.986;11.868;2022-09-13T02:13:56;13.00;75.20
15394;DHT22;7795;47.986;11.868;2022-09-13T02:16:30;13.00;75.20
15394;DHT22;7795;47.986;11.868;2022-09-13T02:18:58;13.00;75.40
15394;DHT22;7795;47.986;11.868;2022-09-13T02:21:29;12.90;75.30
15394;DHT22;7795;47.986;11.868;2022-09-13T02:24:00;12.90;75.40
15394;DHT22;7795;47.986;11.868;2022-09-13T02:26:28;12.90;75.60
15394;DHT22;7795;47.986;11.868;2022-09-13T02:28:58;12.90;75.60
15394;DHT22;7795;47.986;11.868;2022-09-13T02:31:32;12.90;75.80
15394;DHT22;7795;47.986;11.868;2022-09-13T02:34:02;12.80;75.80
15394;DHT22;7795;47.986;11.868;2022-09-13T02:36:33;12.80;75.80
15394;DHT22;7795;47.986;11.868;2022-09-13T02:39:02;12.90;75.90
15394;DHT22;7795;47.986;11.868;2022-09-13T02:41:32;12.80;75.90
15394;DHT22;7795;47.986;11.868;2022-09-13T02:44:06;12.80;76.00
15394;DHT22;7795;47.986;11.868;2022-09-13T02:46:51;12.80;76.10
15394;DHT22;7795;47.986;11.868;2022-09-13T02:49:23;12.80;76.30
15394;DHT22;7795;47.986;11.868;2022-09-13T02:51:55;12.80;76.00
15394;DHT22;7795;47.986;11.868;2022-09-13T02:54:28;12.80;76.10
15394;DHT22;7795;47.986;11.868;2022-09-13T02:56:58;12.80;76.00
15394;DHT22;7795;47.986;11.868;2022-09-13T02:59:26;12.70;75.90
15394;DHT22;7795;47.986;11.868;2022-09-13T03:01:57;12.70;75.80
15394;DHT22;7795;47.986;11.868;2022-09-13T03:04:24;12.70;76.10
15394;DHT22;7795;47.986;11.868;2022-09-13T03:06:50;12.70;75.90
15394;DHT22;7795;47.986;11.868;2022-09-13T03:09:16;12.60;75.90
15394;DHT22;7795;47.986;11.868;2022-09-13T03:11:55;12.60;75.90
15394;DHT22;7795;47.986;11.868;2022-09-13T03:14:33;12.60;76.20
15394;DHT22;7795;47.986;11.868;2022-09-13T03:17:18;12.60;76.20
15394;DHT22;7795;47.986;11.868;2022-09-13T03:19:58;12.60;76.20
15394;DHT22;7795;47.986;11.868;2022-09-13T03:22:55;12.50;76.10
15394;DHT22;7795;47.986;11.868;2022-09-13T03:25:33;12.50;76.20
15394;DHT22;7795;47.986;11.868;2022-09-13T03:28:11;12.50;76.20
15394;DHT22;7795;47.986;11.868;2022-09-13T03:30:43;12.50;76.20
15394;DHT22;7795;47.986;11.868;2022-09-13T03:33:18;12.40;76.10
15394;DHT22;7795;47.986;11.868;2022-09-13T03:35:52;12.40;76.20
15394;DHT22;7795;47.986;11.868;2022-09-13T03:38:23;12.40;76.30
15394;DHT22;7795;47.986;11.868;2022-09-13T03:40:54;12.40;76.20
15394;DHT22;7795;47.986;11.868;2022-09-13T03:43:25;12.40;76.20
15394;DHT22;7795;47.986;11.868;2022-09-13T03:45:58;12.40;76.40
15394;DHT22;7795;47.986;11.868;2022-09-13T03:48:27;12.40;76.50
15394;DHT22;7795;47.986;11.868;2022-09-13T03:50:54;12.40;76.60
15394;DHT22;7795;47.986;11.868;2022-09-13T03:53:22;12.30;76.60
15394;DHT22;7795;47.986;11.868;2022-09-13T03:55:49;12.30;76.80
15394;DHT22;7795;47.986;11.868;2022-09-13T03:58:17;12.30;76.90
15394;DHT22;7795;47.986;11.868;2022-09-13T04:00:43;12.30;76.90
15394;DHT22;7795;47.986;11.868;2022-09-13T04:03:10;12.30;76.90
15394;DHT22;7795;47.986;11.868;2022-09-13T04:05:37;12.30;77.00
15394;DHT22;7795;47.986;11.868;2022-09-13T04:08:04;12.30;77.10
15394;DHT22;7795;47.986;11.868;2022-09-13T04:10:31;12.30;77.10
15394;DHT22;7795;47.986;11.868;2022-09-13T04:12:57;12.40;77.10
15394;DHT22;7795;47.986;11.868;2022-09-13T04:15:24;12.30;77.10
15394;DHT22;7795;47.986;11.868;2022-09-13T04:17:50;12.30;77.10
15394;DHT22;7795;47.986;11.868;2022-09-13T04:20:16;12.30;77.90
15394;DHT22;7795;47.986;11.868;2022-09-13T04:22:50;12.30;77.20
15394;DHT22;7795;47.986;11.868;2022-09-13T04:25:15;12.30;77.50
15394;DHT22;7795;47.986;11.868;2022-09-13T04:27:41;12.30;77.20
15394;DHT22;7795;47.986;11.868;2022-09-13T04:30:08;12.30;77.20
15394;DHT22;7795;47.986;11.868;2022-09-13T04:32:33;12.30;77.10
15394;DHT22;7795;47.986;11.868;2022-09-13T04:34:59;12.30;77.80
15394;DHT22;7795;47.986;11.868;2022-09-13T04:37:25;12.30;77.10
15394;DHT22;7795;47.986;11.868;2022-09-13T04:39:52;12.30;77.10
15394;DHT22;7795;47.986;11.868;2022-09-13T04:42:18;12.20;77.00
15394;DHT22;7795;47.986;11.868;2022-09-13T04:44:44;12.20;77.00
15394;DHT22;7795;47.986;11.868;2022-09-13T04:47:10;12.20;77.10
15394;DHT22;7795;47.986;11.868;2022-09-13T04:49:35;12.20;77.10
15394;DHT22;7795;47.986;11.868;2022-09-13T04:52:02;12.20;77.20
15394;DHT22;7795;47.986;11.868;2022-09-13T04:54:27;12.20;77.20
15394;DHT22;7795;47.986;11.868;2022-09-13T04:56:55;12.10;77.20
15394;DHT22;7795;47.986;11.868;2022-09-13T04:59:20;12.20;77.30
15394;DHT22;7795;47.986;11.868;2022-09-13T05:01:46;12.10;77.20
15394;DHT22;7795;47.986;11.868;2022-09-13T05:04:12;12.20;77.20
15394;DHT22;7795;47.986;11.868;2022-09-13T05:06:37;12.10;77.20
15394;DHT22;7795;47.986;11.868;2022-09-13T05:09:04;12.10;77.30
15394;DHT22;7795;47.986;11.868;2022-09-13T05:11:30;12.10;77.40
15394;DHT22;7795;47.986;11.868;2022-09-13T05:13:58;12.00;77.40
15394;DHT22;7795;47.986;11.868;2022-09-13T05:16:26;12.00;77.50
15394;DHT22;7795;47.986;11.868;2022-09-13T05:18:52;12.10;77.70
15394;DHT22;7795;47.986;11.868;2022-09-13T05:21:19;12.00;77.70
15394;DHT22;7795;47.986;11.868;2022-09-13T05:23:47;12.00;77.80
15394;DHT22;7795;47.986;11.868;2022-09-13T05:26:12;12.00;77.80
15394;DHT22;7795;47.986;11.868;2022-09-13T05:28:38;12.10;77.90
15394;DHT22;7795;47.986;11.868;2022-09-13T05:31:07;12.00;77.90
15394;DHT22;7795;47.986;11.868;2022-09-13T05:33:36;12.10;78.10
15394;DHT22;7795;47.986;11.868;2022-09-13T05:36:02;12.10;78.20
15394;DHT22;7795;47.986;11.868;2022-09-13T05:38:28;12.10;78.40
15394;DHT22;7795;47.986;11.868;2022-09-13T05:40:54;12.10;78.50
15394;DHT22;7795;47.986;11.868;2022-09-13T05:43:21;12.10;78.70
15394;DHT22;7795;47.986;11.868;2022-09-13T05:45:46;12.20;78.90
15394;DHT22;7795;47.986;11.868;2022-09-13T05:48:14;12.20;79.10
15394;DHT22;7795;47.986;11.868;2022-09-13T05:50:39;12.30;79.30
15394;DHT22;7795;47.986;11.868;2022-09-13T05:53:05;12.30;79.30
15394;DHT22;7795;47.986;11.868;2022-09-13T05:55:31;12.40;79.40
15394;DHT22;7795;47.986;11.868;2022-09-13T05:58:00;12.50;79.50
15394;DHT22;7795;47.986;11.868;2022-09-13T06:00:26;12.50;79.60
15394;DHT22;7795;47.986;11.868;2022-09-13T06:02:51;12.60;79.60
15394;DHT22;7795;47.986;11.868;2022-09-13T06:05:18;12.70;79.70
15394;DHT22;7795;47.986;11.868;2022-09-13T06:07:44;12.80;79.70
15394;DHT22;7795;47.986;11.868;2022-09-13T06:10:10;12.90;79.60
15394;DHT22;7795;47.986;11.868;2022-09-13T06:12:36;13.00;79.70
15394;DHT22;7795;47.986;11.868;2022-09-13T06:15:03;13.00;79.50
15394;DHT22;7795;47.986;11.868;2022-09-13T06:17:29;13.10;79.60
15394;DHT22;7795;47.986;11.868;2022-09-13T06:19:54;13.20;79.60
15394;DHT22;7795;47.986;11.868;2022-09-13T06:22:22;13.30;79.70
15394;DHT22;7795;47.986;11.868;2022-09-13T06:24:48;13.40;79.90
15394;DHT22;7795;47.986;11.868;2022-09-13T06:27:14;13.50;80.80
15394;DHT22;7795;47.986;11.868;2022-09-13T06:29:40;13.60;80.40
15394;DHT22;7795;47.986;11.868;2022-09-13T06:32:05;13.90;80.80
15394;DHT22;7795;47.986;11.868;2022-09-13T06:34:31;14.10;81.20
15394;DHT22;7795;47.986;11.868;2022-09-13T06:36:58;14.50;81.50
15394;DHT22;7795;47.986;11.868;2022-09-13T06:39:25;14.90;81.70
15394;DHT22;7795;47.986;11.868;2022-09-13T06:41:51;15.30;81.50
15394;DHT22;7795;47.986;11.868;2022-09-13T06:44:17;15.70;81.00
15394;DHT22;7795;47.986;11.868;2022-09-13T06:46:43;16.20;80.20
15394;DHT22;7795;47.986;11.868;2022-09-13T06:49:09;16.50;79.10
15394;DHT22;7795;47.986;11.868;2022-09-13T06:51:35;16.80;78.10
15394;DHT22;7795;47.986;11.868;2022-09-13T06:54:01;17.00;77.30
15394;DHT22;7795;47.986;11.868;2022-09-13T06:56:31;17.20;76.70
15394;DHT22;7795;47.986;11.868;2022-09-13T06:58:58;17.20;76.40
15394;DHT22;7795;47.986;11.868;2022-09-13T07:01:26;17.20;76.10
15394;DHT22;7795;47.986;11.868;2022-09-13T07:03:54;17.20;75.80
15394;DHT22;7795;47.986;11.868;2022-09-13T07:06:21;17.20;75.80
15394;DHT22;7795;47.986;11.868;2022-09-13T07:08:48;17.20;75.80
15394;DHT22;7795;47.986;11.868;2022-09-13T07:11:16;17.20;76.80
15394;DHT22;7795;47.986;11.868;2022-09-13T07:13:46;17.20;76.20
15394;DHT22;7795;47.986;11.868;2022-09-13T07:16:12;17.10;76.40
15394;DHT22;7795;47.986;11.868;2022-09-13T07:18:38;17.10;76.40
15394;DHT22;7795;47.986;11.868;2022-09-13T07:21:05;17.10;76.50
15394;DHT22;7795;47.986;11.868;2022-09-13T07:23:33;17.10;76.70
15394;DHT22;7795;47.986;11.868;2022-09-13T07:26:00;17.20;77.70
15394;DHT22;7795;47.986;11.868;2022-09-13T07:28:33;17.20;77.20
15394;DHT22;7795;47.986;11.868;2022-09-13T07:31:06;17.30;77.40
15394;DHT22;7795;47.986;11.868;2022-09-13T07:33:32;17.30;77.70
15394;DHT22;7795;47.986;11.868;2022-09-13T07:35:58;17.40;77.60
15394;DHT22;7795;47.986;11.868;2022-09-13T07:38:25;17.40;77.60
15394;DHT22;7795;47.986;11.868;2022-09-13T07:40:54;17.50;77.50
15394;DHT22;7795;47.986;11.868;2022-09-13T07:43:21;17.60;77.60
15394;DHT22;7795;47.986;11.868;2022-09-13T07:45:47;17.70;77.60
15394;DHT22;7795;47.986;11.868;2022-09-13T07:48:14;17.70;77.70
15394;DHT22;7795;47.986;11.868;2022-09-13T07:50:39;17.80;77.70
15394;DHT22;7795;47.986;11.868;2022-09-13T07:53:05;17.90;77.60
15394;DHT22;7795;47.986;11.868;2022-09-13T07:55:31;18.00;77.50
15394;DHT22;7795;47.986;11.868;2022-09-13T07:57:56;18.10;77.40
15394;DHT22;7795;47.986;11.868;2022-09-13T08:00:24;18.20;77.10
15394;DHT22;7795;47.986;11.868;2022-09-13T08:02:50;18.30;77.10
15394;DHT22;7795;47.986;11.868;2022-09-13T08:05:17;18.50;76.90
15394;DHT22;7795;47.986;11.868;2022-09-13T08:07:43;18.60;76.70
15394;DHT22;7795;47.986;11.868;2022-09-13T08:10:09;18.70;76.80
15394;DHT22;7795;47.986;11.868;2022-09-13T08:12:35;18.80;76.90
15394;DHT22;7795;47.986;11.868;2022-09-13T08:15:00;18.90;76.60
15394;DHT22;7795;47.986;11.868;2022-09-13T08:17:26;19.00;76.40
15394;DHT22;7795;47.986;11.868;2022-09-13T08:19:52;19.10;76.20
15394;DHT22;7795;47.986;11.868;2022-09-13T08:22:19;19.20;76.00
15394;DHT22;7795;47.986;11.868;2022-09-13T08:24:44;19.30;76.00
15394;DHT22;7795;47.986;11.868;2022-09-13T08:27:10;19.40;75.90
15394;DHT22;7795;47.986;11.868;2022-09-13T08:29:37;19.60;75.80
15394;DHT22;7795;47.986;11.868;2022-09-13T08:32:03;19.70;75.80
15394;DHT22;7795;47.986;11.868;2022-09-13T08:34:29;19.80;75.80
15394;DHT22;7795;47.986;11.868;2022-09-13T08:36:55;19.90;75.80
15394;DHT22;7795;47.986;11.868;2022-09-13T08:39:22;20.10;75.70
15394;DHT22;7795;47.986;11.868;2022-09-13T08:42:02;20.20;75.80
15394;DHT22;7795;47.986;11.868;2022-09-13T08:44:33;20.40;75.50
15394;DHT22;7795;47.986;11.868;2022-09-13T08:47:14;20.50;75.30
15394;DHT22;7795;47.986;11.868;2022-09-13T08:49:45;20.70;75.30
15394;DHT22;7795;47.986;11.868;2022-09-13T08:52:19;20.80;75.00
15394;DHT22;7795;47.986;11.868;2022-09-13T08:54:48;21.00;74.60
15394;DHT22;7795;47.986;11.868;2022-09-13T08:57:16;21.10;74.50
15394;DHT22;7795;47.986;11.868;2022-09-13T08:59:54;21.30;74.20
15394;DHT22;7795;47.986;11.868;2022-09-13T09:02:47;21.40;73.70
15394;DHT22;7795;47.986;11.868;2022-09-13T09:05:15;21.50;73.10
15394;DHT22;7795;47.986;11.868;2022-09-13T09:07:45;21.70;73.50
15394;DHT22;7795;47.986;11.868;2022-09-13T09:10:16;21.80;73.10
15394;DHT22;7795;47.986;11.868;2022-09-13T09:12:46;21.90;72.90
15394;DHT22;7795;47.986;11.868;2022-09-13T09:15:15;22.00;73.00
15394;DHT22;7795;47.986;11.868;2022-09-13T09:17:47;22.10;73.00
15394;DHT22;7795;47.986;11.868;2022-09-13T09:20:33;22.20;72.80
15394;DHT22;7795;47.986;11.868;2022-09-13T09:23:04;22.40;72.40
15394;DHT22;7795;47.986;11.868;2022-09-13T09:25:33;22.50;72.60
15394;DHT22;7795;47.986;11.868;2022-09-13T09:28:00;22.60;72.10
15394;DHT22;7795;47.986;11.868;2022-09-13T09:30:35;22.70;71.90
15394;DHT22;7795;47.986;11.868;2022-09-13T09:33:22;22.80;71.60
15394;DHT22;7795;47.986;11.868;2022-09-13T09:35:57;22.90;71.70
15394;DHT22;7795;47.986;11.868;2022-09-13T09:38:32;23.00;71.70
15394;DHT22;7795;47.986;11.868;2022-09-13T09:41:02;23.10;71.00
15394;DHT22;7795;47.986;11.868;2022-09-13T09:43:32;23.20;71.10
15394;DHT22;7795;47.986;11.868;2022-09-13T09:46:02;23.30;70.90
15394;DHT22;7795;47.986;11.868;2022-09-13T09:48:36;23.40;70.90
15394;DHT22;7795;47.986;11.868;2022-09-13T09:51:04;23.40;70.80
15394;DHT22;7795;47.986;11.868;2022-09-13T09:53:32;23.50;70.90
15394;DHT22;7795;47.986;11.868;2022-09-13T09:56:04;23.60;70.90
15394;DHT22;7795;47.986;11.868;2022-09-13T09:58:38;23.70;70.60
15394;DHT22;7795;47.986;11.868;2022-09-13T10:01:04;23.80;70.00
15394;DHT22;7795;47.986;11.868;2022-09-13T10:03:32;23.90;69.90
15394;DHT22;7795;47.986;11.868;2022-09-13T10:06:06;23.90;69.40
15394;DHT22;7795;47.986;11.868;2022-09-13T10:08:34;24.00;67.10
15394;DHT22;7795;47.986;11.868;2022-09-13T10:11:03;24.10;67.10
15394;DHT22;7795;47.986;11.868;2022-09-13T10:13:30;24.10;66.00
15394;DHT22;7795;47.986;11.868;2022-09-13T10:15:58;24.20;65.60
15394;DHT22;7795;47.986;11.868;2022-09-13T10:18:25;24.20;65.00
15394;DHT22;7795;47.986;11.868;2022-09-13T10:21:03;24.30;64.70
15394;DHT22;7795;47.986;11.868;2022-09-13T10:23:30;24.40;63.40
15394;DHT22;7795;47.986;11.868;2022-09-13T10:26:06;24.40;64.30
15394;DHT22;7795;47.986;11.868;2022-09-13T10:28:35;24.50;63.50
15394;DHT22;7795;47.986;11.868;2022-09-13T10:31:07;24.60;63.50
15394;DHT22;7795;47.986;11.868;2022-09-13T10:33:36;24.60;63.00
15394;DHT22;7795;47.986;11.868;2022-09-13T10:36:06;24.70;62.60
15394;DHT22;7795;47.986;11.868;2022-09-13T10:38:35;24.80;62.30
15394;DHT22;7795;47.986;11.868;2022-09-13T10:41:03;24.90;62.20
15394;DHT22;7795;47.986;11.868;2022-09-13T10:43:32;24.90;62.00
15394;DHT22;7795;47.986;11.868;2022-09-13T10:45:59;25.00;61.50
15394;DHT22;7795;47.986;11.868;2022-09-13T10:48:28;25.10;61.80
15394;DHT22;7795;47.986;11.868;2022-09-13T10:51:06;25.10;61.20
15394;DHT22;7795;47.986;11.868;2022-09-13T10:53:35;25.20;60.20
15394;DHT22;7795;47.986;11.868;2022-09-13T10:56:02;25.20;60.90
15394;DHT22;7795;47.986;11.868;2022-09-13T10:58:28;25.30;60.90
15394;DHT22;7795;47.986;11.868;2022-09-13T11:01:33;25.40;61.20
15394;DHT22;7795;47.986;11.868;2022-09-13T11:07:06;25.50;59.50
15394;DHT22;7795;47.986;11.868;2022-09-13T11:09:37;25.60;59.90
15394;DHT22;7795;47.986;11.868;2022-09-13T11:12:13;25.60;59.80
15394;DHT22;7795;47.986;11.868;2022-09-13T11:14:51;25.70;59.30
15394;DHT22;7795;47.986;11.868;2022-09-13T11:17:28;25.80;59.50
15394;DHT22;7795;47.986;11.868;2022-09-13T11:20:11;25.80;59.10
15394;DHT22;7795;47.986;11.868;2022-09-13T11:22:52;25.90;58.90
15394;DHT22;7795;47.986;11.868;2022-09-13T11:25:38;25.90;58.80
15394;DHT22;7795;47.986;11.868;2022-09-13T11:28:17;26.00;58.70
15394;DHT22;7795;47.986;11.868;2022-09-13T11:31:02;26.00;58.30
15394;DHT22;7795;47.986;11.868;2022-09-13T11:33:42;26.10;57.80
15394;DHT22;7795;47.986;11.868;2022-09-13T11:39:12;26.20;56.90
15394;DHT22;7795;47.986;11.868;2022-09-13T11:41:45;26.40;57.40
15394;DHT22;7795;47.986;11.868;2022-09-13T11:44:34;26.40;58.40
15394;DHT22;7795;47.986;11.868;2022-09-13T11:47:11;26.50;57.10
15394;DHT22;7795;47.986;11.868;2022-09-13T11:50:02;26.70;57.20
15394;DHT22;7795;47.986;11.868;2022-09-13T11:52:43;26.80;56.50
15394;DHT22;7795;47.986;11.868;2022-09-13T11:55:15;26.90;57.10
15394;DHT22;7795;47.986;11.868;2022-09-13T11:57:45;27.00;56.90
15394;DHT22;7795;47.986;11.868;2022-09-13T12:00:19;27.10;56.40
15394;DHT22;7795;47.986;11.868;2022-09-13T12:02:51;27.20;55.90
15394;DHT22;7795;47.986;11.868;2022-09-13T12:05:21;27.30;55.90
15394;DHT22;7795;47.986;11.868;2022-09-13T12:07:50;27.30;55.20
15394;DHT22;7795;47.986;11.868;2022-09-13T12:10:23;27.50;55.50
15394;DHT22;7795;47.986;11.868;2022-09-13T12:12:50;27.50;54.70
15394;DHT22;7795;47.986;11.868;2022-09-13T12:15:21;27.70;55.20
15394;DHT22;7795;47.986;11.868;2022-09-13T12:17:52;27.80;53.90
15394;DHT22;7795;47.986;11.868;2022-09-13T12:20:29;27.90;53.20
15394;DHT22;7795;47.986;11.868;2022-09-13T12:22:57;27.90;52.20
15394;DHT22;7795;47.986;11.868;2022-09-13T12:25:30;28.00;52.80
15394;DHT22;7795;47.986;11.868;2022-09-13T12:28:09;28.10;52.20
15394;DHT22;7795;47.986;11.868;2022-09-13T12:30:41;28.20;51.40
15394;DHT22;7795;47.986;11.868;2022-09-13T12:33:13;28.30;52.00
15394;DHT22;7795;47.986;11.868;2022-09-13T12:35:47;28.30;51.70
15394;DHT22;7795;47.986;11.868;2022-09-13T12:38:37;28.40;50.90
15394;DHT22;7795;47.986;11.868;2022-09-13T12:41:23;28.50;51.00
15394;DHT22;7795;47.986;11.868;2022-09-13T12:50:09;28.60;50.70
15394;DHT22;7795;47.986;11.868;2022-09-13T12:52:44;28.70;51.20
15394;DHT22;7795;47.986;11.868;2022-09-13T12:55:35;28.70;50.40
15394;DHT22;7795;47.986;11.868;2022-09-13T12:58:19;28.70;49.10
15394;DHT22;7795;47.986;11.868;2022-09-13T13:01:03;28.70;50.10
15394;DHT22;7795;47.986;11.868;2022-09-13T13:03:35;28.70;50.70
15394;DHT22;7795;47.986;11.868;2022-09-13T13:06:07;28.70;51.70
15394;DHT22;7795;47.986;11.868;2022-09-13T13:08:37;28.70;51.60
15394;DHT22;7795;47.986;11.868;2022-09-13T13:11:05;28.70;52.00
15394;DHT22;7795;47.986;11.868;2022-09-13T13:13:36;28.70;51.60
15394;DHT22;7795;47.986;11.868;2022-09-13T13:16:22;28.70;50.90
15394;DHT22;7795;47.986;11.868;2022-09-13T13:18:49;28.70;50.20
15394;DHT22;7795;47.986;11.868;2022-09-13T13:21:31;28.70;50.80
15394;DHT22;7795;47.986;11.868;2022-09-13T13:27:32;28.70;50.50
15394;DHT22;7795;47.986;11.868;2022-09-13T13:30:33;28.70;50.70
15394;DHT22;7795;47.986;11.868;2022-09-13T13:33:04;28.70;49.70
15394;DHT22;7795;47.986;11.868;2022-09-13T13:35:31;28.70;49.70
15394;DHT22;7795;47.986;11.868;2022-09-13T13:38:14;28.70;49.70
15394;DHT22;7795;47.986;11.868;2022-09-13T13:40:40;28.70;49.20
15394;DHT22;7795;47.986;11.868;2022-09-13T13:43:28;28.70;49.50
15394;DHT22;7795;47.986;11.868;2022-09-13T13:46:23;28.70;48.60
15394;DHT22;7795;47.986;11.868;2022-09-13T13:48:49;28.70;48.90
15394;DHT22;7795;47.986;11.868;2022-09-13T13:51:19;28.70;49.60
15394;DHT22;7795;47.986;11.868;2022-09-13T13:53:48;28.70;48.70
15394;DHT22;7795;47.986;11.868;2022-09-13T13:56:45;28.70;48.80
15394;DHT22;7795;47.986;11.868;2022-09-13T13:59:18;28.70;47.90
15394;DHT22;7795;47.986;11.868;2022-09-13T14:01:49;28.70;48.60
15394;DHT22;7795;47.986;11.868;2022-09-13T14:05:02;28.70;49.20
15394;DHT22;7795;47.986;11.868;2022-09-13T14:07:51;28.70;49.20
15394;DHT22;7795;47.986;11.868;2022-09-13T14:10:26;28.70;49.10
15394;DHT22;7795;47.986;11.868;2022-09-13T14:13:06;28.70;49.80
15394;DHT22;7795;47.986;11.868;2022-09-13T14:15:46;28.80;49.00
15394;DHT22;7795;47.986;11.868;2022-09-13T14:18:42;28.70;49.60
15394;DHT22;7795;47.986;11.868;2022-09-13T14:21:19;28.80;48.50
15394;DHT22;7795;47.986;11.868;2022-09-13T14:23:45;28.70;48.30
15394;DHT22;7795;47.986;11.868;2022-09-13T14:26:11;28.70;48.60
15394;DHT22;7795;47.986;11.868;2022-09-13T14:28:37;28.80;48.60
15394;DHT22;7795;47.986;11.868;2022-09-13T14:31:05;28.80;48.90
15394;DHT22;7795;47.986;11.868;2022-09-13T14:33:33;28.80;48.80
15394;DHT22;7795;47.986;11.868;2022-09-13T14:36:02;28.90;48.20
15394;DHT22;7795;47.986;11.868;2022-09-13T14:38:30;28.90;47.70
15394;DHT22;7795;47.986;11.868;2022-09-13T14:41:09;28.90;47.10
15394;DHT22;7795;47.986;11.868;2022-09-13T14:43:35;29.00;47.00
15394;DHT22;7795;47.986;11.868;2022-09-13T14:46:06;29.00;46.70
15394;DHT22;7795;47.986;11.868;2022-09-13T14:48:38;29.10;46.20
15394;DHT22;7795;47.986;11.868;2022-09-13T14:51:11;29.10;45.80
15394;DHT22;7795;47.986;11.868;2022-09-13T14:53:39;29.10;46.70
15394;DHT22;7795;47.986;11.868;2022-09-13T14:56:10;29.10;46.70
15394;DHT22;7795;47.986;11.868;2022-09-13T14:58:42;29.10;46.40
15394;DHT22;7795;47.986;11.868;2022-09-13T15:01:13;29.10;46.60
15394;DHT22;7795;47.986;11.868;2022-09-13T15:03:41;29.10;46.80
15394;DHT22;7795;47.986;11.868;2022-09-13T15:06:20;29.10;47.70
15394;DHT22;7795;47.986;11.868;2022-09-13T15:08:47;29.10;47.50
15394;DHT22;7795;47.986;11.868;2022-09-13T15:11:15;29.10;48.30
15394;DHT22;7795;47.986;11.868;2022-09-13T15:14:17;29.10;47.50
15394;DHT22;7795;47.986;11.868;2022-09-13T15:16:48;29.10;48.20
15394;DHT22;7795;47.986;11.868;2022-09-13T15:19:28;29.00;48.40
15394;DHT22;7795;47.986;11.868;2022-09-13T15:22:11;29.00;48.60
15394;DHT22;7795;47.986;11.868;2022-09-13T15:24:42;29.00;48.50
15394;DHT22;7795;47.986;11.868;2022-09-13T15:27:17;29.00;49.40
15394;DHT22;7795;47.986;11.868;2022-09-13T15:29:47;29.00;49.20
15394;DHT22;7795;47.986;11.868;2022-09-13T15:32:20;29.00;49.30
15394;DHT22;7795;47.986;11.868;2022-09-13T15:34:48;28.90;50.10
15394;DHT22;7795;47.986;11.868;2022-09-13T15:37:14;28.90;50.20
15394;DHT22;7795;47.986;11.868;2022-09-13T15:39:45;28.90;50.30
15394;DHT22;7795;47.986;11.868;2022-09-13T15:42:12;28.90;50.80
15394;DHT22;7795;47.986;11.868;2022-09-13T15:44:37;28.80;51.10
15394;DHT22;7795;47.986;11.868;2022-09-13T15:47:09;28.80;51.00
15394;DHT22;7795;47.986;11.868;2022-09-13T15:49:38;28.70;51.70
15394;DHT22;7795;47.986;11.868;2022-09-13T15:52:05;28.60;51.70
15394;DHT22;7795;47.986;11.868;2022-09-13T15:54:33;28.50;51.50
15394;DHT22;7795;47.986;11.868;2022-09-13T15:56:59;28.50;52.00
15394;DHT22;7795;47.986;11.868;2022-09-13T15:59:25;28.40;52.10
15394;DHT22;7795;47.986;11.868;2022-09-13T16:01:51;28.30;52.40
15394;DHT22;7795;47.986;11.868;2022-09-13T16:04:18;28.20;52.70
15394;DHT22;7795;47.986;11.868;2022-09-13T16:06:45;28.20;52.90
15394;DHT22;7795;47.986;11.868;2022-09-13T16:09:16;28.10;53.30
15394;DHT22;7795;47.986;11.868;2022-09-13T16:11:43;28.00;53.50